F/V Jeremi Simon — FHAF — position and weather

sailwx.info

Track history (hours):
 
Tides and Currents Weather Stations Pressure Air Temp Water Temp Dewpoint Dewpoint Depression Visibility Wind Speed Wind Dir Waves Ship Positions

F/V Jeremi Simon

Last reported at 2014-Nov-27 08:33 UTC. Time now 2014-Nov-27 19:33 UTC.
Position N 46°41' W 002°02'.

Length 20 m.

Type: Other ship. MMSI: 227415000.

Date/timePositionNaut miles runAvg speedWind from/ knotsBaromVisibWave heightAir tempDewpointWater temp
2014-Nov-27 08:33N 46°41' W 002°02'1110.0
2014-Nov-27 07:26N 46°39' W 002°18'5 0.2
2014-Nov-26 05:30N 46°44' W 002°14'8 9.0
2014-Nov-26 04:33N 46°42' W 002°02'4 0.2
2014-Nov-25 04:33N 46°42' W 001°57'9 9.5
2014-Nov-25 03:33N 46°36' W 002°07'34 0.8
2014-Nov-23 10:14N 46°07' W 001°42'6 8.6
2014-Nov-23 09:30N 46°13' W 001°45'9 9.1
2014-Nov-23 08:33N 46°21' W 001°49'9 9.0
2014-Nov-23 07:33N 46°29' W 001°53'9 9.2
2014-Nov-23 06:34N 46°38' W 001°56'  
2014-Nov-19 23:33N 46°39' W 001°56'8 8.3
2014-Nov-19 22:33N 46°31' W 001°53'9 8.7
2014-Nov-19 21:33N 46°23' W 001°50'9 9.0
2014-Nov-19 20:33N 46°14' W 001°46'10 9.2
2014-Nov-19 19:31N 46°05' W 001°42'  
2014-Nov-17 13:33N 46°12' W 001°44'9 9.5
2014-Nov-17 12:33N 46°21' W 001°48'10 9.7
2014-Nov-17 11:33N 46°30' W 001°53'10 9.8
2014-Nov-17 10:33N 46°39' W 001°57'2 2.5
2014-Nov-17 09:33N 46°42' W 001°57'0 0.0
2014-Nov-17 08:33N 46°42' W 001°57'  
Track history (hours):
 
Tides and Currents Weather Stations Pressure Air Temp Water Temp Dewpoint Dewpoint Depression Visibility Wind Speed Wind Dir Waves Ship Positions

F/V Jeremi Simon

Last reported at 2014-Nov-27 08:33 UTC. Time now 2014-Nov-27 19:33 UTC.
Position N 46°41' W 002°02'.

Length 20 m.

Type: Other ship. MMSI: 227415000.

Date/timePositionNaut miles runAvg speedWind from/ knotsBaromVisibWave heightAir tempDewpointWater temp
2014-Nov-27 08:33N 46°41' W 002°02'1110.0
2014-Nov-27 07:26N 46°39' W 002°18'5 0.2
2014-Nov-26 05:30N 46°44' W 002°14'8 9.0
2014-Nov-26 04:33N 46°42' W 002°02'4 0.2
2014-Nov-25 04:33N 46°42' W 001°57'9 9.5
2014-Nov-25 03:33N 46°36' W 002°07'34 0.8
2014-Nov-23 10:14N 46°07' W 001°42'6 8.6
2014-Nov-23 09:30N 46°13' W 001°45'9 9.1
2014-Nov-23 08:33N 46°21' W 001°49'9 9.0
2014-Nov-23 07:33N 46°29' W 001°53'9 9.2
2014-Nov-23 06:34N 46°38' W 001°56'  
2014-Nov-19 23:33N 46°39' W 001°56'8 8.3
2014-Nov-19 22:33N 46°31' W 001°53'9 8.7
2014-Nov-19 21:33N 46°23' W 001°50'9 9.0
2014-Nov-19 20:33N 46°14' W 001°46'10 9.2
2014-Nov-19 19:31N 46°05' W 001°42'  
2014-Nov-17 13:33N 46°12' W 001°44'9 9.5
2014-Nov-17 12:33N 46°21' W 001°48'10 9.7
2014-Nov-17 11:33N 46°30' W 001°53'10 9.8
2014-Nov-17 10:33N 46°39' W 001°57'2 2.5
2014-Nov-17 09:33N 46°42' W 001°57'0 0.0
2014-Nov-17 08:33N 46°42' W 001°57'  

Dump ship's entire track history